WZZ43W EDJA-LOWK
Flight info
| Callsign | WZZ43W |
|---|---|
| Flight time | 0h 40m |
| Altitude | 23000 |
| Route | KPT4B KPT Z999 BEMKI T23 BIRGI DCT EVAXI EVAXI1T |
| Aircraft | A21N/M-SDE2E3FGHIRWXY/LB1 |
Departure
| Time | 2026-04-26 09:57 |
|---|---|
| Airport | Memmingen Allgau Airport (EDJA) |
Arrival
| Time | 2026-04-26 10:38 |
|---|---|
| Airport | Klagenfurt Airport (LOWK) |
| Time | Latitude | Longitude | Altitude | Speed | Heading |
|---|---|---|---|---|---|
| 2026-04-26 09:30 | 47.98868 | 10.23238 | 2085 ft | 0 kts | 49° |
| 2026-04-26 09:47 | 47.98860 | 10.23225 | 2085 ft | 4 kts | 39° |
| 2026-04-26 09:47 | 47.98841 | 10.23213 | 2085 ft | 4 kts | 338° |
| 2026-04-26 09:47 | 47.98828 | 10.23237 | 2085 ft | 4 kts | 279° |
| 2026-04-26 09:47 | 47.98826 | 10.23267 | 2086 ft | 4 kts | 265° |
| 2026-04-26 09:48 | 47.98833 | 10.23306 | 2086 ft | 4 kts | 248° |
| 2026-04-26 09:48 | 47.98839 | 10.23330 | 2086 ft | 0 kts | 251° |
| 2026-04-26 09:52 | 47.98831 | 10.23296 | 2086 ft | 7 kts | 251° |
| 2026-04-26 09:53 | 47.98812 | 10.23212 | 2085 ft | 10 kts | 251° |
| 2026-04-26 09:53 | 47.98788 | 10.23109 | 2085 ft | 11 kts | 251° |
| 2026-04-26 09:53 | 47.98760 | 10.22990 | 2084 ft | 13 kts | 249° |
| 2026-04-26 09:53 | 47.98718 | 10.22909 | 2083 ft | 8 kts | 242° |
| 2026-04-26 09:54 | 47.98703 | 10.22822 | 2082 ft | 10 kts | 263° |
| 2026-04-26 09:54 | 47.98692 | 10.22735 | 2083 ft | 8 kts | 239° |
| 2026-04-26 09:54 | 47.98638 | 10.22714 | 2085 ft | 9 kts | 180° |
| 2026-04-26 09:54 | 47.98563 | 10.22714 | 2087 ft | 12 kts | 180° |
| 2026-04-26 09:55 | 47.98493 | 10.22676 | 2089 ft | 6 kts | 226° |
| 2026-04-26 09:55 | 47.98464 | 10.22612 | 2090 ft | 9 kts | 239° |
| 2026-04-26 09:55 | 47.98424 | 10.22537 | 2092 ft | 6 kts | 195° |
| 2026-04-26 09:55 | 47.98376 | 10.22562 | 2093 ft | 9 kts | 140° |
| 2026-04-26 09:56 | 47.98358 | 10.22631 | 2093 ft | 7 kts | 71° |
| 2026-04-26 09:56 | 47.98382 | 10.22691 | 2092 ft | 25 kts | 58° |
| 2026-04-26 09:56 | 47.98610 | 10.23265 | 2086 ft | 102 kts | 59° |
| 2026-04-26 09:56 | 47.99068 | 10.24418 | 2073 ft | 149 kts | 59° |
| 2026-04-26 09:57 | 47.99660 | 10.25882 | 2321 ft | 171 kts | 58° |
| 2026-04-26 09:57 | 48.00178 | 10.27117 | 2861 ft | 172 kts | 57° |
| 2026-04-26 09:57 | 48.00732 | 10.28389 | 3405 ft | 175 kts | 56° |
| 2026-04-26 09:57 | 48.01389 | 10.29940 | 3994 ft | 181 kts | 63° |
| 2026-04-26 09:58 | 48.01976 | 10.31677 | 4501 ft | 194 kts | 61° |
| 2026-04-26 09:58 | 48.02666 | 10.33498 | 5016 ft | 209 kts | 59° |
| 2026-04-26 09:58 | 48.03432 | 10.35442 | 5525 ft | 226 kts | 59° |
| 2026-04-26 09:58 | 48.04003 | 10.37731 | 5978 ft | 244 kts | 84° |
| 2026-04-26 09:59 | 48.03816 | 10.40230 | 6671 ft | 250 kts | 111° |
| 2026-04-26 09:59 | 48.02850 | 10.42377 | 7388 ft | 253 kts | 140° |
| 2026-04-26 09:59 | 48.01298 | 10.43614 | 8101 ft | 257 kts | 168° |
| 2026-04-26 09:59 | 47.99521 | 10.43645 | 8859 ft | 258 kts | 192° |
| 2026-04-26 10:00 | 47.97758 | 10.43015 | 9613 ft | 265 kts | 195° |
| 2026-04-26 10:00 | 47.95923 | 10.42288 | 10086 ft | 281 kts | 195° |
| 2026-04-26 10:00 | 47.93974 | 10.41550 | 10533 ft | 297 kts | 194° |
| 2026-04-26 10:00 | 47.91896 | 10.40799 | 10855 ft | 317 kts | 194° |
| 2026-04-26 10:01 | 47.89679 | 10.40028 | 11143 ft | 337 kts | 193° |
| 2026-04-26 10:01 | 47.87325 | 10.39229 | 11455 ft | 356 kts | 193° |
| 2026-04-26 10:01 | 47.84888 | 10.38410 | 12105 ft | 361 kts | 193° |
| 2026-04-26 10:01 | 47.82421 | 10.37584 | 12874 ft | 364 kts | 193° |
| 2026-04-26 10:02 | 47.79970 | 10.36767 | 13647 ft | 367 kts | 193° |
| 2026-04-26 10:02 | 47.77463 | 10.35933 | 14367 ft | 371 kts | 193° |
| 2026-04-26 10:02 | 47.74933 | 10.35100 | 15026 ft | 374 kts | 192° |
| 2026-04-26 10:02 | 47.72344 | 10.34426 | 15681 ft | 378 kts | 190° |
| 2026-04-26 10:03 | 47.69731 | 10.33807 | 16369 ft | 381 kts | 190° |
| 2026-04-26 10:03 | 47.67103 | 10.33188 | 17052 ft | 384 kts | 190° |
| 2026-04-26 10:03 | 47.64452 | 10.32563 | 17716 ft | 387 kts | 190° |
| 2026-04-26 10:03 | 47.61752 | 10.32249 | 18355 ft | 393 kts | 179° |
| 2026-04-26 10:04 | 47.59061 | 10.33029 | 18899 ft | 399 kts | 161° |
| 2026-04-26 10:04 | 47.56626 | 10.35022 | 19428 ft | 404 kts | 142° |
| 2026-04-26 10:04 | 47.54692 | 10.38056 | 19949 ft | 409 kts | 124° |
| 2026-04-26 10:04 | 47.53456 | 10.41850 | 20495 ft | 412 kts | 108° |
| 2026-04-26 10:05 | 47.52701 | 10.45888 | 21060 ft | 414 kts | 104° |
| 2026-04-26 10:05 | 47.51959 | 10.50030 | 21581 ft | 418 kts | 104° |
| 2026-04-26 10:05 | 47.51178 | 10.54185 | 22076 ft | 421 kts | 105° |
| 2026-04-26 10:05 | 47.50360 | 10.58373 | 22577 ft | 425 kts | 105° |
| 2026-04-26 10:06 | 47.49520 | 10.62583 | 23083 ft | 428 kts | 106° |
| 2026-04-26 10:06 | 47.48668 | 10.66825 | 23574 ft | 432 kts | 106° |
| 2026-04-26 10:06 | 47.47806 | 10.71098 | 23990 ft | 436 kts | 106° |
| 2026-04-26 10:06 | 47.46951 | 10.75409 | 24457 ft | 436 kts | 104° |
| 2026-04-26 10:07 | 47.46329 | 10.79781 | 25011 ft | 434 kts | 100° |
| 2026-04-26 10:07 | 47.45783 | 10.84169 | 25573 ft | 433 kts | 99° |
| 2026-04-26 10:07 | 47.45241 | 10.88545 | 26041 ft | 433 kts | 100° |
| 2026-04-26 10:07 | 47.44696 | 10.92926 | 26227 ft | 436 kts | 99° |
| 2026-04-26 10:08 | 47.44150 | 10.97327 | 26263 ft | 447 kts | 99° |
| 2026-04-26 10:08 | 47.43564 | 11.01900 | 26263 ft | 459 kts | 100° |
| 2026-04-26 10:08 | 47.42959 | 11.06591 | 26262 ft | 471 kts | 99° |
| 2026-04-26 10:08 | 47.42349 | 11.11401 | 26261 ft | 480 kts | 99° |
| 2026-04-26 10:09 | 47.41743 | 11.16185 | 26255 ft | 481 kts | 99° |
| 2026-04-26 10:09 | 47.41119 | 11.21108 | 26248 ft | 481 kts | 99° |
| 2026-04-26 10:09 | 47.40501 | 11.25951 | 26239 ft | 481 kts | 100° |
| 2026-04-26 10:09 | 47.39876 | 11.30801 | 26246 ft | 480 kts | 99° |
| 2026-04-26 10:10 | 47.39250 | 11.35646 | 26226 ft | 480 kts | 99° |
| 2026-04-26 10:10 | 47.38657 | 11.40494 | 26220 ft | 480 kts | 97° |
| 2026-04-26 10:10 | 47.38276 | 11.45380 | 26217 ft | 479 kts | 95° |
| 2026-04-26 10:10 | 47.37916 | 11.50269 | 26235 ft | 479 kts | 95° |
| 2026-04-26 10:11 | 47.37553 | 11.55156 | 26246 ft | 478 kts | 95° |
| 2026-04-26 10:11 | 47.37200 | 11.59974 | 26249 ft | 479 kts | 95° |
| 2026-04-26 10:11 | 47.36836 | 11.64864 | 26252 ft | 479 kts | 95° |
| 2026-04-26 10:11 | 47.36467 | 11.69754 | 26234 ft | 479 kts | 95° |
| 2026-04-26 10:12 | 47.36096 | 11.74632 | 26248 ft | 478 kts | 95° |
| 2026-04-26 10:12 | 47.35728 | 11.79507 | 26243 ft | 478 kts | 95° |
| 2026-04-26 10:12 | 47.35371 | 11.84378 | 26243 ft | 478 kts | 95° |
| 2026-04-26 10:12 | 47.34990 | 11.89250 | 26246 ft | 479 kts | 97° |
| 2026-04-26 10:13 | 47.34160 | 11.94012 | 26238 ft | 481 kts | 110° |
| 2026-04-26 10:13 | 47.32730 | 11.98478 | 26244 ft | 482 kts | 116° |
| 2026-04-26 10:13 | 47.31178 | 12.02859 | 26231 ft | 482 kts | 117° |
| 2026-04-26 10:13 | 47.29623 | 12.07229 | 26230 ft | 482 kts | 117° |
| 2026-04-26 10:14 | 47.28074 | 12.11610 | 26223 ft | 482 kts | 116° |
| 2026-04-26 10:14 | 47.26536 | 12.15989 | 26225 ft | 482 kts | 116° |
| 2026-04-26 10:14 | 47.24998 | 12.20374 | 26221 ft | 482 kts | 116° |
| 2026-04-26 10:14 | 47.23457 | 12.24761 | 26227 ft | 482 kts | 116° |
| 2026-04-26 10:15 | 47.21918 | 12.29140 | 26232 ft | 482 kts | 116° |
| 2026-04-26 10:15 | 47.20399 | 12.33453 | 26222 ft | 482 kts | 116° |
| 2026-04-26 10:15 | 47.18849 | 12.37837 | 26221 ft | 482 kts | 116° |
| 2026-04-26 10:15 | 47.17305 | 12.42206 | 26220 ft | 481 kts | 116° |
| 2026-04-26 10:16 | 47.15764 | 12.46564 | 26218 ft | 481 kts | 116° |
| 2026-04-26 10:16 | 47.14210 | 12.50939 | 26215 ft | 482 kts | 117° |
| 2026-04-26 10:16 | 47.12660 | 12.55282 | 26213 ft | 476 kts | 116° |
| 2026-04-26 10:16 | 47.11161 | 12.59497 | 26200 ft | 453 kts | 116° |
| 2026-04-26 10:17 | 47.09735 | 12.63502 | 26177 ft | 432 kts | 116° |
| 2026-04-26 10:17 | 47.08357 | 12.67364 | 26181 ft | 425 kts | 116° |
| 2026-04-26 10:17 | 47.06992 | 12.71182 | 25996 ft | 420 kts | 116° |
| 2026-04-26 10:17 | 47.05629 | 12.75000 | 25710 ft | 422 kts | 116° |
| 2026-04-26 10:18 | 47.04286 | 12.78757 | 25469 ft | 420 kts | 116° |
| 2026-04-26 10:18 | 47.02930 | 12.82539 | 25232 ft | 418 kts | 116° |
| 2026-04-26 10:18 | 47.01573 | 12.86305 | 24986 ft | 417 kts | 116° |
| 2026-04-26 10:18 | 47.00225 | 12.90042 | 24587 ft | 413 kts | 116° |
| 2026-04-26 10:19 | 46.98884 | 12.93768 | 24039 ft | 412 kts | 116° |
| 2026-04-26 10:19 | 46.97546 | 12.97476 | 23410 ft | 411 kts | 116° |
| 2026-04-26 10:19 | 46.96210 | 13.01168 | 22761 ft | 409 kts | 116° |
| 2026-04-26 10:19 | 46.94882 | 13.04833 | 22118 ft | 407 kts | 116° |
| 2026-04-26 10:20 | 46.93551 | 13.08502 | 21508 ft | 406 kts | 116° |
| 2026-04-26 10:20 | 46.92675 | 13.10912 | 21111 ft | 404 kts | 116° |
| 2026-04-26 10:20 | 46.90936 | 13.15706 | 20356 ft | 401 kts | 116° |
| 2026-04-26 10:20 | 46.89636 | 13.19283 | 19829 ft | 399 kts | 116° |
| 2026-04-26 10:21 | 46.88331 | 13.22851 | 19306 ft | 397 kts | 117° |
| 2026-04-26 10:21 | 46.87034 | 13.26398 | 18816 ft | 395 kts | 116° |
| 2026-04-26 10:21 | 46.85740 | 13.29934 | 18310 ft | 394 kts | 116° |
| 2026-04-26 10:21 | 46.84450 | 13.33453 | 17777 ft | 391 kts | 116° |
| 2026-04-26 10:22 | 46.83176 | 13.36930 | 17255 ft | 386 kts | 117° |
| 2026-04-26 10:22 | 46.81918 | 13.40363 | 16745 ft | 380 kts | 117° |
| 2026-04-26 10:22 | 46.80680 | 13.43733 | 16269 ft | 374 kts | 117° |
| 2026-04-26 10:22 | 46.79456 | 13.47070 | 15795 ft | 369 kts | 117° |
| 2026-04-26 10:23 | 46.78254 | 13.50351 | 15362 ft | 366 kts | 116° |
| 2026-04-26 10:23 | 46.77368 | 13.53807 | 14859 ft | 364 kts | 101° |
| 2026-04-26 10:23 | 46.76882 | 13.57381 | 14390 ft | 353 kts | 98° |
| 2026-04-26 10:23 | 46.76447 | 13.60857 | 13963 ft | 341 kts | 99° |
| 2026-04-26 10:24 | 46.76025 | 13.64195 | 13554 ft | 328 kts | 99° |
| 2026-04-26 10:24 | 46.75611 | 13.67406 | 13153 ft | 317 kts | 99° |
| 2026-04-26 10:24 | 46.75199 | 13.70533 | 12581 ft | 313 kts | 99° |
| 2026-04-26 10:24 | 46.74787 | 13.73652 | 12047 ft | 311 kts | 100° |
| 2026-04-26 10:25 | 46.74378 | 13.76736 | 11509 ft | 309 kts | 100° |
| 2026-04-26 10:25 | 46.73969 | 13.79799 | 10962 ft | 307 kts | 100° |
| 2026-04-26 10:25 | 46.73569 | 13.82795 | 10467 ft | 304 kts | 101° |
| 2026-04-26 10:25 | 46.73167 | 13.85800 | 9945 ft | 301 kts | 101° |
| 2026-04-26 10:26 | 46.72765 | 13.88788 | 9393 ft | 298 kts | 101° |
| 2026-04-26 10:26 | 46.72365 | 13.91743 | 8826 ft | 295 kts | 101° |
| 2026-04-26 10:26 | 46.71969 | 13.94667 | 8296 ft | 292 kts | 101° |
| 2026-04-26 10:26 | 46.71477 | 13.97520 | 7805 ft | 289 kts | 105° |
| 2026-04-26 10:27 | 46.70920 | 14.00344 | 7274 ft | 290 kts | 106° |
| 2026-04-26 10:27 | 46.70353 | 14.03165 | 6708 ft | 290 kts | 106° |
| 2026-04-26 10:27 | 46.69788 | 14.05985 | 6116 ft | 289 kts | 105° |
| 2026-04-26 10:27 | 46.69231 | 14.08798 | 5535 ft | 288 kts | 106° |
| 2026-04-26 10:28 | 46.68862 | 14.10646 | 5191 ft | 285 kts | 106° |
| 2026-04-26 10:28 | 46.68313 | 14.13405 | 4738 ft | 281 kts | 106° |
| 2026-04-26 10:28 | 46.67790 | 14.16022 | 4912 ft | 257 kts | 106° |
| 2026-04-26 10:28 | 46.67315 | 14.18414 | 4973 ft | 235 kts | 106° |
| 2026-04-26 10:29 | 46.66753 | 14.21243 | 5023 ft | 202 kts | 105° |
| 2026-04-26 10:29 | 46.66493 | 14.22548 | 5024 ft | 197 kts | 106° |
| 2026-04-26 10:29 | 46.66110 | 14.24460 | 5010 ft | 196 kts | 106° |
| 2026-04-26 10:29 | 46.65729 | 14.26369 | 4958 ft | 197 kts | 106° |
| 2026-04-26 10:30 | 46.65348 | 14.28278 | 4808 ft | 196 kts | 106° |
| 2026-04-26 10:30 | 46.64991 | 14.30187 | 4595 ft | 195 kts | 98° |
| 2026-04-26 10:30 | 46.64982 | 14.32156 | 4411 ft | 194 kts | 86° |
| 2026-04-26 10:30 | 46.65022 | 14.34123 | 4194 ft | 194 kts | 87° |
| 2026-04-26 10:31 | 46.65076 | 14.36113 | 4021 ft | 209 kts | 86° |
| 2026-04-26 10:31 | 46.65137 | 14.38289 | 3986 ft | 217 kts | 86° |
| 2026-04-26 10:31 | 46.65194 | 14.40463 | 3979 ft | 218 kts | 86° |
| 2026-04-26 10:31 | 46.65255 | 14.42706 | 3985 ft | 230 kts | 86° |
| 2026-04-26 10:32 | 46.65238 | 14.45051 | 3938 ft | 235 kts | 100° |
| 2026-04-26 10:32 | 46.64796 | 14.47412 | 3973 ft | 250 kts | 107° |
| 2026-04-26 10:32 | 46.64250 | 14.49830 | 3977 ft | 252 kts | 108° |
| 2026-04-26 10:32 | 46.63707 | 14.52211 | 3976 ft | 241 kts | 108° |
| 2026-04-26 10:33 | 46.63199 | 14.54450 | 3977 ft | 226 kts | 108° |
| 2026-04-26 10:33 | 46.62649 | 14.56449 | 4015 ft | 201 kts | 122° |
| 2026-04-26 10:33 | 46.61620 | 14.57646 | 4019 ft | 189 kts | 160° |
| 2026-04-26 10:33 | 46.60337 | 14.57705 | 4001 ft | 187 kts | 197° |
| 2026-04-26 10:34 | 46.59342 | 14.56600 | 3985 ft | 183 kts | 242° |
| 2026-04-26 10:34 | 46.59209 | 14.54839 | 3969 ft | 178 kts | 289° |
| 2026-04-26 10:34 | 46.59857 | 14.53311 | 3929 ft | 177 kts | 306° |
| 2026-04-26 10:34 | 46.60490 | 14.51803 | 3735 ft | 179 kts | 298° |
| 2026-04-26 10:35 | 46.60963 | 14.50139 | 3516 ft | 177 kts | 291° |
| 2026-04-26 10:35 | 46.61306 | 14.48423 | 3294 ft | 177 kts | 288° |
| 2026-04-26 10:35 | 46.61651 | 14.46705 | 3050 ft | 176 kts | 288° |
| 2026-04-26 10:35 | 46.61992 | 14.45012 | 2820 ft | 171 kts | 288° |
| 2026-04-26 10:36 | 46.62313 | 14.43418 | 2598 ft | 158 kts | 288° |
| 2026-04-26 10:36 | 46.62606 | 14.41967 | 2361 ft | 144 kts | 288° |
| 2026-04-26 10:36 | 46.62886 | 14.40576 | 2185 ft | 143 kts | 288° |
| 2026-04-26 10:36 | 46.63165 | 14.39190 | 2001 ft | 143 kts | 288° |
| 2026-04-26 10:37 | 46.63443 | 14.37809 | 1815 ft | 143 kts | 288° |
| 2026-04-26 10:37 | 46.63718 | 14.36426 | 1646 ft | 142 kts | 287° |
| 2026-04-26 10:37 | 46.63995 | 14.35051 | 1483 ft | 141 kts | 288° |
| 2026-04-26 10:37 | 46.64239 | 14.33845 | 1467 ft | 99 kts | 285° |
| 2026-04-26 10:38 | 46.64379 | 14.33160 | 1465 ft | 43 kts | 287° |
| 2026-04-26 10:38 | 46.64424 | 14.32946 | 1469 ft | 9 kts | 287° |
| 2026-04-26 10:38 | 46.64472 | 14.32876 | 1463 ft | 11 kts | 336° |
| 2026-04-26 10:38 | 46.64550 | 14.32823 | 1462 ft | 14 kts | 333° |
| 2026-04-26 10:39 | 46.64634 | 14.32758 | 1462 ft | 12 kts | 324° |
| 2026-04-26 10:39 | 46.64700 | 14.32674 | 1469 ft | 12 kts | 324° |
| 2026-04-26 10:39 | 46.64780 | 14.32629 | 1467 ft | 13 kts | 347° |
| 2026-04-26 10:39 | 46.64798 | 14.32623 | 1460 ft | 0 kts | 347° |
| 2026-04-26 10:40 | 46.64799 | 14.32623 | 1460 ft | 0 kts | 347° |
| 2026-04-26 10:42 | 46.64804 | 14.32588 | 1462 ft | 8 kts | 255° |
| 2026-04-26 10:43 | 46.64799 | 14.32493 | 1467 ft | 11 kts | 296° |
| 2026-04-26 10:43 | 46.64858 | 14.32467 | 1469 ft | 0 kts | 44° |
| 2026-04-26 10:43 | 46.64866 | 14.32484 | 1463 ft | 4 kts | 62° |
| 2026-04-26 10:43 | 46.64878 | 14.32519 | 1463 ft | 0 kts | 76° |
| 2026-04-26 10:47 | 46.64878 | 14.32520 | 1463 ft | 0 kts | 77° |